Air Navigation Services of Czech Republic  
Last data update:  24.11.2020 06:25:27 UTC česká verze
   METEO Page displayed:  24.11.2020 06:26:22 UTC  
help
METAR EDDB 240620Z 19007KT CAVOK 00/M01 Q1026 NOSIG=
METAR EDDC 240620Z 18008KT CAVOK M01/M01 Q1027 NOSIG=
METAR EDDE 240620Z 20010KT CAVOK M00/M01 Q1026 NOSIG=
METAR EDDF 240620Z 08008KT 7000 FEW003 OVC004 05/04 Q1027 TEMPO 4000=
METAR EDDM 240620Z 10007KT 6000 BKN005 OVC007 04/03 Q1027 TEMPO 4500 BR=
METAR EDDN 240620Z 10007KT 3200 BR FEW002 BKN004 02/01 Q1028 NOSIG=
METAR EDDP 240620Z 18007KT 160V230 CAVOK 00/M01 Q1027 NOSIG=
METAR EDDT NIL
METAR EDQM 240620Z 21008KT 0350 R26/1200D FG VV/// 00/M00 Q1027=
METAR EPBY 240600Z 25010KT 9999 OVC004 03/03 Q1025=
METAR EPGD 240600Z 26010KT 9999 FEW011 SCT036 05/03 Q1021=
METAR EPKK 240600Z 25004KT 9999 BKN035 03/01 Q1029=
METAR EPKT 240600Z 22006KT 9999 OVC026 04/02 Q1029=
METAR EPLL 240600Z 24007KT 9999 BKN007 02/01 Q1027=
METAR EPPO 240600Z 23006KT CAVOK 01/01 Q1026=
METAR EPRZ 240600Z 25009KT 9999 OVC038 04/01 Q1028=
METAR EPWA 240600Z 27012KT 9999 BKN010 05/03 Q1026 NOSIG=
METAR EPWR 240600Z 22007KT CAVOK 02/M00 Q1029=
METAR LHBP 240600Z 35004KT 0200 R13R/0450N R13L/0450N FZFG VV001 M01/M01 Q1031 TEMPO 0100=
METAR LHSM 240545Z AUTO 30003KT 5000 BR NCD M00/M01 Q1031=
METAR LKBC 240630Z AUTO 09003KT 0200 FZFG VV002 M02/M03 Q1029=
METAR LKCV 240600Z 15004KT CAVOK M02/M03 Q1030 NOSIG RMK BLU BLU=
SPECI LKKB 240604Z 18007KT 0600 R24/1900D FZFG VV001 M02/M02 Q1029 RMK RED=
METAR LKKU 240600Z VRB02KT 0200 FG BKN001 OVC006 01/01 Q1031=
METAR LKKV 240600Z VRB01KT 0500 R29/0600N FZFG OVC001 M04/M04 Q1027 RMK REG QNH 1024=
METAR LKLN 240600Z AUTO VRB01KT 0200 FG VV002 M02/// Q1029=
SPECI LKMT 240616Z 24011KT 0700 R22/1800D R04/1500D FG OVC001 01/01 Q1030 RMK REG QNH 1024=
METAR LKNA 240600Z 31002KT 0200 R30/0300 FZFG VV001 M03/M04 Q1029 NOSIG RMK RED RED=
METAR LKPD 240600Z 10002KT 0800 R27/0700D FZFG NSC M03/M03 Q1030 NOSIG RMK BLACK AMB=
METAR LKPJ 240600Z AUTO 27004KT 0000 +SN VV003 M01/M02 Q1031=
METAR LKPR 240600Z 19006KT 9000 NSC M02/M03 Q1028 BECMG 3000 BR SCT002 RMK REG QNH 1024=
METAR LKTB 240600Z VRB01KT 0100 R27/0600N FZFG OVC001 M02/M02 Q1031 NOSIG RMK REG QNH 1024=
METAR LKVO NIL
METAR LOWI 240620Z VRB01KT CAVOK M04/M05 Q1029 NOSIG=
METAR LOWL 240620Z VRB02KT 9999 FEW004 BKN006 02/01 Q1029 TEMPO BKN004=
METAR LOWS 240620Z VRB02KT 8000 MIFG FEW002 M03/M03 Q1028 TEMPO 2000 FZBCFG=
METAR LOWW 240620Z VRB02KT 0300 R16/0300N R29/0325N FG VV001 M00/M00 Q1031 R88/19//95 NOSIG=
METAR LZIB 240600Z VRB01KT 0100 R31/0325N R22/0250N FZFG VV001 M03/M03 Q1031 NOSIG=
METAR LZKZ 240600Z VRB03KT 1100 R01/P2000N BR OVC002 M01/M01 Q1031 NOSIG=
METAR LZMC 240600Z VRB02KT 0100 R19/0400N FG VV001 01/01 Q1031=
SPECI LZPP 240609Z 02005KT 0550 R01/1100D FZFG OVC002 M01/M01 Q1031=
METAR LZSL 240600Z 00000KT 0100 R36/0325N FZFG OVC001 M03/M03 Q1031=
SPECI LZTT 240605Z VRB01KT 9999 FEW033 M04/M05 Q1028=
METAR LZZI 240600Z VRB02KT 5000 BR OVC004 01/00 Q1030=